sensor_id;sensor_type;location;lat;lon;timestamp;P1;durP1;ratioP1;P2;durP2;ratioP2
22780;SDS011;11557;50.884;4.322;2023-03-23T00:02:26;5.70;;;5.00;;
22780;SDS011;11557;50.884;4.322;2023-03-23T00:04:53;7.85;;;4.50;;
22780;SDS011;11557;50.884;4.322;2023-03-23T00:07:19;6.53;;;4.47;;
22780;SDS011;11557;50.884;4.322;2023-03-23T00:09:52;5.60;;;4.20;;
22780;SDS011;11557;50.884;4.322;2023-03-23T00:12:24;7.05;;;4.07;;
22780;SDS011;11557;50.884;4.322;2023-03-23T00:14:58;6.70;;;4.40;;
22780;SDS011;11557;50.884;4.322;2023-03-23T00:17:25;8.02;;;5.35;;
22780;SDS011;11557;50.884;4.322;2023-03-23T00:19:52;9.52;;;5.55;;
22780;SDS011;11557;50.884;4.322;2023-03-23T00:22:18;14.82;;;7.68;;
22780;SDS011;11557;50.884;4.322;2023-03-23T00:24:46;12.95;;;7.13;;
22780;SDS011;11557;50.884;4.322;2023-03-23T00:27:13;14.80;;;7.80;;
22780;SDS011;11557;50.884;4.322;2023-03-23T00:29:39;11.68;;;7.38;;
22780;SDS011;11557;50.884;4.322;2023-03-23T00:32:07;9.30;;;6.18;;
22780;SDS011;11557;50.884;4.322;2023-03-23T00:34:39;9.75;;;6.45;;
22780;SDS011;11557;50.884;4.322;2023-03-23T00:37:06;9.48;;;6.32;;
22780;SDS011;11557;50.884;4.322;2023-03-23T00:39:32;7.90;;;5.80;;
22780;SDS011;11557;50.884;4.322;2023-03-23T00:42:01;7.55;;;5.65;;
22780;SDS011;11557;50.884;4.322;2023-03-23T00:44:28;9.25;;;6.75;;
22780;SDS011;11557;50.884;4.322;2023-03-23T00:46:55;10.93;;;6.28;;
22780;SDS011;11557;50.884;4.322;2023-03-23T00:49:22;8.10;;;6.28;;
22780;SDS011;11557;50.884;4.322;2023-03-23T00:51:49;10.23;;;6.25;;
22780;SDS011;11557;50.884;4.322;2023-03-23T00:54:16;7.97;;;5.65;;
22780;SDS011;11557;50.884;4.322;2023-03-23T00:56:42;8.30;;;5.93;;
22780;SDS011;11557;50.884;4.322;2023-03-23T00:59:08;9.80;;;6.53;;
22780;SDS011;11557;50.884;4.322;2023-03-23T01:01:34;6.40;;;4.72;;
22780;SDS011;11557;50.884;4.322;2023-03-23T01:04:01;8.18;;;5.32;;
22780;SDS011;11557;50.884;4.322;2023-03-23T01:06:29;8.40;;;5.47;;
22780;SDS011;11557;50.884;4.322;2023-03-23T01:08:57;6.47;;;5.20;;
22780;SDS011;11557;50.884;4.322;2023-03-23T01:11:24;7.15;;;5.63;;
22780;SDS011;11557;50.884;4.322;2023-03-23T01:13:50;6.85;;;5.78;;
22780;SDS011;11557;50.884;4.322;2023-03-23T01:16:17;7.03;;;4.80;;
22780;SDS011;11557;50.884;4.322;2023-03-23T01:18:43;7.82;;;5.35;;
22780;SDS011;11557;50.884;4.322;2023-03-23T01:21:10;8.00;;;5.78;;
22780;SDS011;11557;50.884;4.322;2023-03-23T01:23:37;8.65;;;5.63;;
22780;SDS011;11557;50.884;4.322;2023-03-23T01:26:09;9.80;;;5.10;;
22780;SDS011;11557;50.884;4.322;2023-03-23T01:28:36;6.70;;;5.55;;
22780;SDS011;11557;50.884;4.322;2023-03-23T01:31:06;8.07;;;5.90;;
22780;SDS011;11557;50.884;4.322;2023-03-23T01:33:34;7.82;;;5.95;;
22780;SDS011;11557;50.884;4.322;2023-03-23T01:36:07;9.05;;;6.00;;
22780;SDS011;11557;50.884;4.322;2023-03-23T01:38:35;6.30;;;5.50;;
22780;SDS011;11557;50.884;4.322;2023-03-23T01:41:01;7.63;;;5.97;;
22780;SDS011;11557;50.884;4.322;2023-03-23T01:43:28;8.38;;;5.78;;
22780;SDS011;11557;50.884;4.322;2023-03-23T01:45:54;9.43;;;5.80;;
22780;SDS011;11557;50.884;4.322;2023-03-23T01:48:24;9.38;;;4.75;;
22780;SDS011;11557;50.884;4.322;2023-03-23T01:53:30;6.95;;;4.65;;
22780;SDS011;11557;50.884;4.322;2023-03-23T01:56:01;6.05;;;4.50;;
22780;SDS011;11557;50.884;4.322;2023-03-23T01:58:28;7.00;;;4.47;;
22780;SDS011;11557;50.884;4.322;2023-03-23T02:00:58;6.85;;;4.28;;
22780;SDS011;11557;50.884;4.322;2023-03-23T02:03:29;5.65;;;4.30;;
22780;SDS011;11557;50.884;4.322;2023-03-23T02:05:56;4.43;;;3.22;;
22780;SDS011;11557;50.884;4.322;2023-03-23T02:08:28;7.55;;;3.97;;
22780;SDS011;11557;50.884;4.322;2023-03-23T02:10:57;8.43;;;3.35;;
22780;SDS011;11557;50.884;4.322;2023-03-23T02:13:23;7.40;;;3.40;;
22780;SDS011;11557;50.884;4.322;2023-03-23T02:18:42;6.82;;;3.03;;
22780;SDS011;11557;50.884;4.322;2023-03-23T02:21:36;4.95;;;2.60;;
22780;SDS011;11557;50.884;4.322;2023-03-23T02:24:35;4.45;;;2.50;;
22780;SDS011;11557;50.884;4.322;2023-03-23T02:27:13;5.80;;;2.40;;
22780;SDS011;11557;50.884;4.322;2023-03-23T02:29:55;6.00;;;2.58;;
22780;SDS011;11557;50.884;4.322;2023-03-23T02:35:17;4.60;;;2.30;;
22780;SDS011;11557;50.884;4.322;2023-03-23T02:37:50;4.53;;;2.00;;
22780;SDS011;11557;50.884;4.322;2023-03-23T02:40:41;3.78;;;2.25;;
22780;SDS011;11557;50.884;4.322;2023-03-23T02:43:14;4.57;;;2.05;;
22780;SDS011;11557;50.884;4.322;2023-03-23T02:45:43;4.95;;;1.88;;
22780;SDS011;11557;50.884;4.322;2023-03-23T02:48:10;4.32;;;1.92;;
22780;SDS011;11557;50.884;4.322;2023-03-23T02:50:40;4.03;;;1.85;;
22780;SDS011;11557;50.884;4.322;2023-03-23T02:53:09;5.00;;;1.65;;
22780;SDS011;11557;50.884;4.322;2023-03-23T02:55:39;6.05;;;2.20;;
22780;SDS011;11557;50.884;4.322;2023-03-23T02:58:08;6.50;;;2.40;;
22780;SDS011;11557;50.884;4.322;2023-03-23T03:00:35;5.78;;;2.03;;
22780;SDS011;11557;50.884;4.322;2023-03-23T03:03:02;3.00;;;1.58;;
22780;SDS011;11557;50.884;4.322;2023-03-23T03:05:44;2.75;;;1.58;;
22780;SDS011;11557;50.884;4.322;2023-03-23T03:13:34;3.35;;;1.42;;
22780;SDS011;11557;50.884;4.322;2023-03-23T03:20:01;4.95;;;1.30;;
22780;SDS011;11557;50.884;4.322;2023-03-23T03:25:02;1.98;;;1.42;;
22780;SDS011;11557;50.884;4.322;2023-03-23T03:27:29;4.15;;;1.55;;
22780;SDS011;11557;50.884;4.322;2023-03-23T03:29:57;6.00;;;1.65;;
22780;SDS011;11557;50.884;4.322;2023-03-23T03:32:28;5.82;;;1.67;;
22780;SDS011;11557;50.884;4.322;2023-03-23T03:35:01;6.85;;;1.50;;
22780;SDS011;11557;50.884;4.322;2023-03-23T03:37:31;6.95;;;1.50;;
22780;SDS011;11557;50.884;4.322;2023-03-23T03:42:38;7.10;;;1.95;;
22780;SDS011;11557;50.884;4.322;2023-03-23T03:45:05;2.97;;;1.60;;
22780;SDS011;11557;50.884;4.322;2023-03-23T03:47:32;5.05;;;1.48;;
22780;SDS011;11557;50.884;4.322;2023-03-23T03:49:58;5.50;;;1.90;;
22780;SDS011;11557;50.884;4.322;2023-03-23T03:52:24;6.63;;;1.30;;
22780;SDS011;11557;50.884;4.322;2023-03-23T03:54:50;5.57;;;1.65;;
22780;SDS011;11557;50.884;4.322;2023-03-23T03:57:16;6.28;;;1.70;;
22780;SDS011;11557;50.884;4.322;2023-03-23T03:59:42;3.55;;;1.50;;
22780;SDS011;11557;50.884;4.322;2023-03-23T04:02:08;5.20;;;1.60;;
22780;SDS011;11557;50.884;4.322;2023-03-23T04:04:38;7.80;;;2.20;;
22780;SDS011;11557;50.884;4.322;2023-03-23T04:07:06;7.65;;;2.30;;
22780;SDS011;11557;50.884;4.322;2023-03-23T04:09:32;11.00;;;1.80;;
22780;SDS011;11557;50.884;4.322;2023-03-23T04:11:58;9.40;;;1.85;;
22780;SDS011;11557;50.884;4.322;2023-03-23T04:14:23;10.38;;;2.15;;
22780;SDS011;11557;50.884;4.322;2023-03-23T04:16:49;8.25;;;2.30;;
22780;SDS011;11557;50.884;4.322;2023-03-23T04:19:21;7.90;;;2.03;;
22780;SDS011;11557;50.884;4.322;2023-03-23T04:21:48;7.22;;;1.58;;
22780;SDS011;11557;50.884;4.322;2023-03-23T04:24:14;9.63;;;1.98;;
22780;SDS011;11557;50.884;4.322;2023-03-23T04:26:41;8.20;;;1.92;;
22780;SDS011;11557;50.884;4.322;2023-03-23T04:29:09;6.03;;;1.77;;
22780;SDS011;11557;50.884;4.322;2023-03-23T04:31:37;9.10;;;2.08;;
22780;SDS011;11557;50.884;4.322;2023-03-23T04:34:04;5.93;;;1.65;;
22780;SDS011;11557;50.884;4.322;2023-03-23T04:36:30;10.52;;;2.20;;
22780;SDS011;11557;50.884;4.322;2023-03-23T04:38:58;14.13;;;1.63;;
22780;SDS011;11557;50.884;4.322;2023-03-23T04:41:25;9.50;;;1.75;;
22780;SDS011;11557;50.884;4.322;2023-03-23T04:43:51;9.50;;;1.98;;
22780;SDS011;11557;50.884;4.322;2023-03-23T04:46:18;10.80;;;2.10;;
22780;SDS011;11557;50.884;4.322;2023-03-23T04:48:46;5.47;;;1.58;;
22780;SDS011;11557;50.884;4.322;2023-03-23T04:51:12;8.68;;;2.03;;
22780;SDS011;11557;50.884;4.322;2023-03-23T04:53:39;9.00;;;2.28;;
22780;SDS011;11557;50.884;4.322;2023-03-23T04:56:06;7.72;;;2.05;;
22780;SDS011;11557;50.884;4.322;2023-03-23T04:58:32;8.10;;;1.73;;
22780;SDS011;11557;50.884;4.322;2023-03-23T05:00:59;8.07;;;1.85;;
22780;SDS011;11557;50.884;4.322;2023-03-23T05:03:25;6.68;;;1.60;;
22780;SDS011;11557;50.884;4.322;2023-03-23T05:05:52;8.02;;;1.88;;
22780;SDS011;11557;50.884;4.322;2023-03-23T05:08:19;8.60;;;2.13;;
22780;SDS011;11557;50.884;4.322;2023-03-23T05:10:52;7.03;;;1.45;;
22780;SDS011;11557;50.884;4.322;2023-03-23T05:13:19;3.35;;;1.40;;
22780;SDS011;11557;50.884;4.322;2023-03-23T05:15:46;12.10;;;2.10;;
22780;SDS011;11557;50.884;4.322;2023-03-23T05:18:12;8.73;;;1.60;;
22780;SDS011;11557;50.884;4.322;2023-03-23T05:20:37;7.32;;;2.00;;
22780;SDS011;11557;50.884;4.322;2023-03-23T05:23:04;5.55;;;1.98;;
22780;SDS011;11557;50.884;4.322;2023-03-23T05:25:30;9.05;;;2.15;;
22780;SDS011;11557;50.884;4.322;2023-03-23T05:27:57;9.05;;;1.50;;
22780;SDS011;11557;50.884;4.322;2023-03-23T05:30:24;7.35;;;2.42;;
22780;SDS011;11557;50.884;4.322;2023-03-23T05:32:49;7.38;;;1.77;;
22780;SDS011;11557;50.884;4.322;2023-03-23T05:35:16;5.10;;;1.73;;
22780;SDS011;11557;50.884;4.322;2023-03-23T05:37:43;8.27;;;1.88;;
22780;SDS011;11557;50.884;4.322;2023-03-23T05:40:12;6.07;;;1.80;;
22780;SDS011;11557;50.884;4.322;2023-03-23T05:42:38;5.65;;;1.42;;
22780;SDS011;11557;50.884;4.322;2023-03-23T05:45:10;3.92;;;1.50;;
22780;SDS011;11557;50.884;4.322;2023-03-23T05:47:37;8.82;;;1.98;;
22780;SDS011;11557;50.884;4.322;2023-03-23T05:50:04;7.70;;;2.08;;
22780;SDS011;11557;50.884;4.322;2023-03-23T05:52:31;7.43;;;2.50;;
22780;SDS011;11557;50.884;4.322;2023-03-23T05:55:00;6.35;;;1.40;;
22780;SDS011;11557;50.884;4.322;2023-03-23T05:57:28;5.30;;;1.70;;
22780;SDS011;11557;50.884;4.322;2023-03-23T05:59:55;10.55;;;1.90;;
22780;SDS011;11557;50.884;4.322;2023-03-23T06:02:22;5.03;;;1.80;;
22780;SDS011;11557;50.884;4.322;2023-03-23T06:04:49;9.00;;;2.10;;
22780;SDS011;11557;50.884;4.322;2023-03-23T06:07:15;6.32;;;2.00;;
22780;SDS011;11557;50.884;4.322;2023-03-23T06:09:42;6.82;;;1.98;;
22780;SDS011;11557;50.884;4.322;2023-03-23T06:12:08;11.38;;;1.77;;
22780;SDS011;11557;50.884;4.322;2023-03-23T06:14:35;8.60;;;1.83;;
22780;SDS011;11557;50.884;4.322;2023-03-23T06:17:01;7.32;;;2.65;;
22780;SDS011;11557;50.884;4.322;2023-03-23T06:19:27;11.25;;;2.50;;
22780;SDS011;11557;50.884;4.322;2023-03-23T06:21:56;6.68;;;1.95;;
22780;SDS011;11557;50.884;4.322;2023-03-23T06:24:22;8.32;;;2.05;;
22780;SDS011;11557;50.884;4.322;2023-03-23T06:26:47;8.27;;;2.15;;
22780;SDS011;11557;50.884;4.322;2023-03-23T06:29:15;11.60;;;2.47;;
22780;SDS011;11557;50.884;4.322;2023-03-23T06:31:46;9.77;;;2.08;;
22780;SDS011;11557;50.884;4.322;2023-03-23T06:34:14;9.77;;;1.60;;
22780;SDS011;11557;50.884;4.322;2023-03-23T06:36:40;9.27;;;2.03;;
22780;SDS011;11557;50.884;4.322;2023-03-23T06:39:08;12.70;;;2.20;;
22780;SDS011;11557;50.884;4.322;2023-03-23T06:41:34;9.27;;;2.03;;
22780;SDS011;11557;50.884;4.322;2023-03-23T06:44:00;9.15;;;2.05;;
22780;SDS011;11557;50.884;4.322;2023-03-23T06:46:26;7.50;;;1.77;;
22780;SDS011;11557;50.884;4.322;2023-03-23T06:48:53;6.07;;;1.30;;
22780;SDS011;11557;50.884;4.322;2023-03-23T06:51:19;4.50;;;1.58;;
22780;SDS011;11557;50.884;4.322;2023-03-23T06:53:45;1.63;;;0.75;;
22780;SDS011;11557;50.884;4.322;2023-03-23T06:56:11;4.03;;;1.00;;
22780;SDS011;11557;50.884;4.322;2023-03-23T06:58:37;4.78;;;1.33;;
22780;SDS011;11557;50.884;4.322;2023-03-23T07:01:04;8.88;;;1.75;;
22780;SDS011;11557;50.884;4.322;2023-03-23T07:03:31;5.07;;;1.40;;
22780;SDS011;11557;50.884;4.322;2023-03-23T07:05:57;4.18;;;1.30;;
22780;SDS011;11557;50.884;4.322;2023-03-23T07:08:24;2.72;;;1.10;;
22780;SDS011;11557;50.884;4.322;2023-03-23T07:10:53;3.80;;;0.93;;
22780;SDS011;11557;50.884;4.322;2023-03-23T07:13:21;4.20;;;0.82;;
22780;SDS011;11557;50.884;4.322;2023-03-23T07:15:47;5.10;;;1.02;;
22780;SDS011;11557;50.884;4.322;2023-03-23T07:18:14;4.88;;;1.23;;
22780;SDS011;11557;50.884;4.322;2023-03-23T07:20:40;3.22;;;0.90;;
22780;SDS011;11557;50.884;4.322;2023-03-23T07:23:06;7.82;;;1.30;;
22780;SDS011;11557;50.884;4.322;2023-03-23T07:25:32;3.08;;;1.08;;
22780;SDS011;11557;50.884;4.322;2023-03-23T07:27:59;8.88;;;2.78;;
22780;SDS011;11557;50.884;4.322;2023-03-23T07:30:26;5.38;;;1.10;;
22780;SDS011;11557;50.884;4.322;2023-03-23T07:32:54;6.00;;;1.20;;
22780;SDS011;11557;50.884;4.322;2023-03-23T07:35:20;3.85;;;1.17;;
22780;SDS011;11557;50.884;4.322;2023-03-23T07:37:48;5.20;;;1.38;;
22780;SDS011;11557;50.884;4.322;2023-03-23T07:40:14;6.10;;;1.80;;
22780;SDS011;11557;50.884;4.322;2023-03-23T07:42:44;5.97;;;1.60;;
22780;SDS011;11557;50.884;4.322;2023-03-23T07:45:11;5.22;;;1.70;;
22780;SDS011;11557;50.884;4.322;2023-03-23T07:47:38;4.57;;;1.60;;
22780;SDS011;11557;50.884;4.322;2023-03-23T07:50:05;7.25;;;1.85;;
22780;SDS011;11557;50.884;4.322;2023-03-23T07:52:32;5.60;;;1.90;;
22780;SDS011;11557;50.884;4.322;2023-03-23T07:54:58;7.25;;;1.92;;
22780;SDS011;11557;50.884;4.322;2023-03-23T07:57:27;4.88;;;1.80;;
22780;SDS011;11557;50.884;4.322;2023-03-23T07:59:53;5.55;;;2.50;;
22780;SDS011;11557;50.884;4.322;2023-03-23T08:02:18;10.38;;;2.20;;
22780;SDS011;11557;50.884;4.322;2023-03-23T08:04:44;8.00;;;2.92;;
22780;SDS011;11557;50.884;4.322;2023-03-23T08:07:12;5.50;;;2.30;;
22780;SDS011;11557;50.884;4.322;2023-03-23T08:09:41;6.78;;;1.73;;
22780;SDS011;11557;50.884;4.322;2023-03-23T08:12:07;6.72;;;2.17;;
22780;SDS011;11557;50.884;4.322;2023-03-23T08:14:33;6.43;;;2.10;;
22780;SDS011;11557;50.884;4.322;2023-03-23T08:16:59;5.40;;;2.00;;
22780;SDS011;11557;50.884;4.322;2023-03-23T08:19:25;4.15;;;1.50;;
22780;SDS011;11557;50.884;4.322;2023-03-23T08:21:51;7.07;;;1.98;;
22780;SDS011;11557;50.884;4.322;2023-03-23T08:24:17;6.32;;;1.63;;
22780;SDS011;11557;50.884;4.322;2023-03-23T08:26:43;9.10;;;1.88;;
22780;SDS011;11557;50.884;4.322;2023-03-23T08:29:09;5.35;;;1.40;;
22780;SDS011;11557;50.884;4.322;2023-03-23T08:31:35;5.35;;;1.40;;
22780;SDS011;11557;50.884;4.322;2023-03-23T08:34:02;4.45;;;1.30;;
22780;SDS011;11557;50.884;4.322;2023-03-23T08:36:30;4.30;;;1.02;;
22780;SDS011;11557;50.884;4.322;2023-03-23T08:38:58;3.45;;;1.15;;
22780;SDS011;11557;50.884;4.322;2023-03-23T08:41:24;3.97;;;1.73;;
22780;SDS011;11557;50.884;4.322;2023-03-23T08:43:50;7.45;;;1.55;;
22780;SDS011;11557;50.884;4.322;2023-03-23T08:46:17;4.82;;;1.10;;
22780;SDS011;11557;50.884;4.322;2023-03-23T08:48:44;3.40;;;1.20;;
22780;SDS011;11557;50.884;4.322;2023-03-23T08:51:11;3.83;;;1.30;;
22780;SDS011;11557;50.884;4.322;2023-03-23T08:53:37;4.65;;;1.75;;
22780;SDS011;11557;50.884;4.322;2023-03-23T08:56:05;7.15;;;1.38;;
22780;SDS011;11557;50.884;4.322;2023-03-23T08:58:33;5.82;;;1.40;;
22780;SDS011;11557;50.884;4.322;2023-03-23T09:00:59;5.15;;;1.38;;
22780;SDS011;11557;50.884;4.322;2023-03-23T09:03:25;5.20;;;1.50;;
22780;SDS011;11557;50.884;4.322;2023-03-23T09:05:51;4.60;;;1.50;;
22780;SDS011;11557;50.884;4.322;2023-03-23T09:08:18;4.80;;;1.60;;
22780;SDS011;11557;50.884;4.322;2023-03-23T09:10:44;5.30;;;1.63;;
22780;SDS011;11557;50.884;4.322;2023-03-23T09:13:10;4.18;;;1.27;;
22780;SDS011;11557;50.884;4.322;2023-03-23T09:15:36;4.18;;;1.65;;
22780;SDS011;11557;50.884;4.322;2023-03-23T09:18:02;6.65;;;1.48;;
22780;SDS011;11557;50.884;4.322;2023-03-23T09:20:29;7.25;;;2.05;;
22780;SDS011;11557;50.884;4.322;2023-03-23T09:22:55;4.90;;;1.75;;
22780;SDS011;11557;50.884;4.322;2023-03-23T09:25:26;8.73;;;1.67;;
22780;SDS011;11557;50.884;4.322;2023-03-23T09:27:54;6.72;;;1.77;;
22780;SDS011;11557;50.884;4.322;2023-03-23T09:30:22;4.70;;;1.67;;
22780;SDS011;11557;50.884;4.322;2023-03-23T09:32:54;4.00;;;1.63;;
22780;SDS011;11557;50.884;4.322;2023-03-23T09:35:22;5.15;;;1.63;;
22780;SDS011;11557;50.884;4.322;2023-03-23T09:37:49;2.58;;;1.20;;
22780;SDS011;11557;50.884;4.322;2023-03-23T09:40:19;7.57;;;1.52;;
22780;SDS011;11557;50.884;4.322;2023-03-23T09:54:05;3.80;;;1.10;;
22780;SDS011;11557;50.884;4.322;2023-03-23T09:56:37;3.10;;;1.35;;
22780;SDS011;11557;50.884;4.322;2023-03-23T09:59:08;4.07;;;1.35;;
22780;SDS011;11557;50.884;4.322;2023-03-23T10:01:44;2.47;;;1.00;;
22780;SDS011;11557;50.884;4.322;2023-03-23T10:06:56;3.03;;;1.30;;
22780;SDS011;11557;50.884;4.322;2023-03-23T10:09:45;2.90;;;1.17;;
22780;SDS011;11557;50.884;4.322;2023-03-23T10:15:21;6.25;;;1.45;;
22780;SDS011;11557;50.884;4.322;2023-03-23T10:18:01;4.80;;;1.48;;
22780;SDS011;11557;50.884;4.322;2023-03-23T10:20:35;6.60;;;1.85;;
22780;SDS011;11557;50.884;4.322;2023-03-23T10:26:00;4.70;;;1.95;;
22780;SDS011;11557;50.884;4.322;2023-03-23T10:28:44;1.80;;;1.35;;
22780;SDS011;11557;50.884;4.322;2023-03-23T10:31:40;5.82;;;1.80;;
22780;SDS011;11557;50.884;4.322;2023-03-23T10:34:17;4.18;;;1.80;;
22780;SDS011;11557;50.884;4.322;2023-03-23T10:36:52;5.13;;;2.05;;
22780;SDS011;11557;50.884;4.322;2023-03-23T10:39:26;6.82;;;2.22;;
22780;SDS011;11557;50.884;4.322;2023-03-23T10:41:56;6.88;;;2.35;;
22780;SDS011;11557;50.884;4.322;2023-03-23T10:44:31;6.93;;;2.15;;
22780;SDS011;11557;50.884;4.322;2023-03-23T10:47:03;7.53;;;1.88;;
22780;SDS011;11557;50.884;4.322;2023-03-23T10:52:10;4.68;;;1.92;;
22780;SDS011;11557;50.884;4.322;2023-03-23T10:54:51;6.68;;;2.40;;
22780;SDS011;11557;50.884;4.322;2023-03-23T10:57:23;6.97;;;2.13;;
22780;SDS011;11557;50.884;4.322;2023-03-23T11:02:35;6.85;;;2.28;;
22780;SDS011;11557;50.884;4.322;2023-03-23T11:05:07;7.18;;;2.30;;
22780;SDS011;11557;50.884;4.322;2023-03-23T11:07:57;6.05;;;1.95;;
22780;SDS011;11557;50.884;4.322;2023-03-23T11:10:36;6.30;;;2.72;;
22780;SDS011;11557;50.884;4.322;2023-03-23T11:13:04;7.97;;;2.35;;
22780;SDS011;11557;50.884;4.322;2023-03-23T11:15:39;11.48;;;2.70;;
22780;SDS011;11557;50.884;4.322;2023-03-23T11:18:13;5.97;;;2.00;;
22780;SDS011;11557;50.884;4.322;2023-03-23T11:20:45;12.15;;;2.60;;
22780;SDS011;11557;50.884;4.322;2023-03-23T11:23:35;10.05;;;2.40;;
22780;SDS011;11557;50.884;4.322;2023-03-23T11:26:13;8.98;;;2.47;;
22780;SDS011;11557;50.884;4.322;2023-03-23T11:31:21;10.38;;;3.20;;
22780;SDS011;11557;50.884;4.322;2023-03-23T11:34:09;6.65;;;2.35;;
22780;SDS011;11557;50.884;4.322;2023-03-23T11:36:41;8.07;;;2.65;;
22780;SDS011;11557;50.884;4.322;2023-03-23T11:39:26;9.65;;;2.67;;
22780;SDS011;11557;50.884;4.322;2023-03-23T11:42:11;9.35;;;2.70;;
22780;SDS011;11557;50.884;4.322;2023-03-23T11:44:42;9.63;;;2.72;;
22780;SDS011;11557;50.884;4.322;2023-03-23T11:47:17;9.43;;;2.45;;
22780;SDS011;11557;50.884;4.322;2023-03-23T11:50:04;7.65;;;2.53;;
22780;SDS011;11557;50.884;4.322;2023-03-23T11:58:13;7.80;;;1.90;;
22780;SDS011;11557;50.884;4.322;2023-03-23T12:00:57;5.82;;;1.80;;
22780;SDS011;11557;50.884;4.322;2023-03-23T12:03:32;8.30;;;2.20;;
22780;SDS011;11557;50.884;4.322;2023-03-23T12:06:27;5.03;;;1.80;;
22780;SDS011;11557;50.884;4.322;2023-03-23T12:09:15;5.47;;;1.90;;
22780;SDS011;11557;50.884;4.322;2023-03-23T12:14:43;7.60;;;1.67;;
22780;SDS011;11557;50.884;4.322;2023-03-23T12:22:34;8.98;;;2.15;;
22780;SDS011;11557;50.884;4.322;2023-03-23T12:30:51;7.28;;;2.85;;
22780;SDS011;11557;50.884;4.322;2023-03-23T12:33:50;9.45;;;2.83;;
22780;SDS011;11557;50.884;4.322;2023-03-23T12:36:27;6.97;;;2.10;;
22780;SDS011;11557;50.884;4.322;2023-03-23T12:39:25;9.45;;;2.03;;
22780;SDS011;11557;50.884;4.322;2023-03-23T12:47:55;10.05;;;1.75;;
22780;SDS011;11557;50.884;4.322;2023-03-23T12:50:32;10.23;;;2.88;;
22780;SDS011;11557;50.884;4.322;2023-03-23T12:53:25;9.77;;;1.90;;
22780;SDS011;11557;50.884;4.322;2023-03-23T12:58:42;9.38;;;1.73;;
22780;SDS011;11557;50.884;4.322;2023-03-23T13:01:31;12.60;;;2.55;;
22780;SDS011;11557;50.884;4.322;2023-03-23T13:09:09;10.43;;;2.65;;
22780;SDS011;11557;50.884;4.322;2023-03-23T13:11:43;12.82;;;2.53;;
22780;SDS011;11557;50.884;4.322;2023-03-23T13:19:55;7.85;;;2.03;;
22780;SDS011;11557;50.884;4.322;2023-03-23T13:22:53;10.75;;;2.65;;
22780;SDS011;11557;50.884;4.322;2023-03-23T13:27:57;7.50;;;2.42;;
22780;SDS011;11557;50.884;4.322;2023-03-23T13:30:24;9.23;;;2.35;;
22780;SDS011;11557;50.884;4.322;2023-03-23T13:32:50;6.03;;;2.00;;
22780;SDS011;11557;50.884;4.322;2023-03-23T13:35:18;10.13;;;2.45;;
22780;SDS011;11557;50.884;4.322;2023-03-23T13:37:49;13.98;;;2.55;;
22780;SDS011;11557;50.884;4.322;2023-03-23T13:40:27;7.10;;;1.80;;
22780;SDS011;11557;50.884;4.322;2023-03-23T13:42:55;9.43;;;2.60;;
22780;SDS011;11557;50.884;4.322;2023-03-23T13:50:44;11.98;;;2.63;;
22780;SDS011;11557;50.884;4.322;2023-03-23T13:53:31;10.43;;;2.25;;
22780;SDS011;11557;50.884;4.322;2023-03-23T13:56:19;14.20;;;3.40;;
22780;SDS011;11557;50.884;4.322;2023-03-23T13:59:06;8.90;;;2.55;;
22780;SDS011;11557;50.884;4.322;2023-03-23T14:01:39;11.68;;;2.88;;
22780;SDS011;11557;50.884;4.322;2023-03-23T14:04:16;12.93;;;2.40;;
22780;SDS011;11557;50.884;4.322;2023-03-23T14:06:44;8.20;;;2.08;;
22780;SDS011;11557;50.884;4.322;2023-03-23T14:09:19;10.52;;;2.22;;
22780;SDS011;11557;50.884;4.322;2023-03-23T14:11:56;8.13;;;2.03;;
22780;SDS011;11557;50.884;4.322;2023-03-23T14:14:26;10.48;;;2.20;;
22780;SDS011;11557;50.884;4.322;2023-03-23T14:17:05;9.38;;;2.53;;
22780;SDS011;11557;50.884;4.322;2023-03-23T14:19:36;7.38;;;2.17;;
22780;SDS011;11557;50.884;4.322;2023-03-23T14:22:04;9.75;;;1.98;;
22780;SDS011;11557;50.884;4.322;2023-03-23T14:25:10;10.35;;;2.00;;
22780;SDS011;11557;50.884;4.322;2023-03-23T14:27:38;8.40;;;1.70;;
22780;SDS011;11557;50.884;4.322;2023-03-23T14:30:07;9.07;;;2.05;;
22780;SDS011;11557;50.884;4.322;2023-03-23T14:32:37;11.32;;;2.25;;
22780;SDS011;11557;50.884;4.322;2023-03-23T14:35:45;8.95;;;2.63;;
22780;SDS011;11557;50.884;4.322;2023-03-23T14:37:54;10.25;;;2.20;;
22780;SDS011;11557;50.884;4.322;2023-03-23T14:40:21;10.15;;;3.00;;
22780;SDS011;11557;50.884;4.322;2023-03-23T14:42:47;9.80;;;2.55;;
22780;SDS011;11557;50.884;4.322;2023-03-23T14:45:16;12.30;;;2.53;;
22780;SDS011;11557;50.884;4.322;2023-03-23T14:47:55;9.77;;;2.83;;
22780;SDS011;11557;50.884;4.322;2023-03-23T14:50:26;6.65;;;2.17;;
22780;SDS011;11557;50.884;4.322;2023-03-23T14:52:51;8.13;;;2.22;;
22780;SDS011;11557;50.884;4.322;2023-03-23T14:55:21;9.30;;;2.10;;
22780;SDS011;11557;50.884;4.322;2023-03-23T14:57:48;10.35;;;2.47;;
22780;SDS011;11557;50.884;4.322;2023-03-23T15:00:16;9.60;;;2.80;;
22780;SDS011;11557;50.884;4.322;2023-03-23T15:02:44;9.77;;;2.63;;
22780;SDS011;11557;50.884;4.322;2023-03-23T15:05:16;11.82;;;2.97;;
22780;SDS011;11557;50.884;4.322;2023-03-23T15:07:47;10.35;;;2.17;;
22780;SDS011;11557;50.884;4.322;2023-03-23T15:10:18;11.73;;;2.60;;
22780;SDS011;11557;50.884;4.322;2023-03-23T15:12:46;8.18;;;2.50;;
22780;SDS011;11557;50.884;4.322;2023-03-23T15:15:32;9.68;;;2.05;;
22780;SDS011;11557;50.884;4.322;2023-03-23T15:18:00;12.88;;;2.65;;
22780;SDS011;11557;50.884;4.322;2023-03-23T15:20:46;15.35;;;2.70;;
22780;SDS011;11557;50.884;4.322;2023-03-23T15:23:17;11.00;;;2.67;;
22780;SDS011;11557;50.884;4.322;2023-03-23T15:25:51;13.18;;;2.95;;
22780;SDS011;11557;50.884;4.322;2023-03-23T15:28:20;16.25;;;2.97;;
22780;SDS011;11557;50.884;4.322;2023-03-23T15:30:57;11.80;;;2.88;;
22780;SDS011;11557;50.884;4.322;2023-03-23T15:33:33;10.02;;;2.60;;
22780;SDS011;11557;50.884;4.322;2023-03-23T15:36:15;10.77;;;3.20;;
22780;SDS011;11557;50.884;4.322;2023-03-23T15:38:45;12.07;;;3.40;;
22780;SDS011;11557;50.884;4.322;2023-03-23T15:41:28;16.88;;;4.47;;
22780;SDS011;11557;50.884;4.322;2023-03-23T15:43:58;12.88;;;4.47;;
22780;SDS011;11557;50.884;4.322;2023-03-23T15:46:34;18.55;;;5.40;;
22780;SDS011;11557;50.884;4.322;2023-03-23T15:51:26;19.88;;;6.45;;
22780;SDS011;11557;50.884;4.322;2023-03-23T15:53:54;16.50;;;5.60;;
22780;SDS011;11557;50.884;4.322;2023-03-23T15:56:20;18.70;;;6.15;;
22780;SDS011;11557;50.884;4.322;2023-03-23T15:58:47;14.02;;;6.07;;
22780;SDS011;11557;50.884;4.322;2023-03-23T16:01:14;17.05;;;5.78;;
22780;SDS011;11557;50.884;4.322;2023-03-23T16:03:45;17.75;;;5.00;;
22780;SDS011;11557;50.884;4.322;2023-03-23T16:06:17;17.35;;;5.88;;
22780;SDS011;11557;50.884;4.322;2023-03-23T16:08:44;14.05;;;4.60;;
22780;SDS011;11557;50.884;4.322;2023-03-23T16:11:11;12.60;;;4.05;;
22780;SDS011;11557;50.884;4.322;2023-03-23T16:13:38;10.35;;;3.03;;
22780;SDS011;11557;50.884;4.322;2023-03-23T16:16:04;9.25;;;2.42;;
22780;SDS011;11557;50.884;4.322;2023-03-23T16:18:32;11.20;;;2.97;;
22780;SDS011;11557;50.884;4.322;2023-03-23T16:20:58;9.18;;;2.88;;
22780;SDS011;11557;50.884;4.322;2023-03-23T16:23:25;13.77;;;2.70;;
22780;SDS011;11557;50.884;4.322;2023-03-23T16:25:51;13.63;;;2.95;;
22780;SDS011;11557;50.884;4.322;2023-03-23T16:28:16;9.65;;;2.47;;
22780;SDS011;11557;50.884;4.322;2023-03-23T16:30:44;8.07;;;1.98;;
22780;SDS011;11557;50.884;4.322;2023-03-23T16:33:10;9.65;;;2.58;;
22780;SDS011;11557;50.884;4.322;2023-03-23T16:35:36;9.55;;;2.53;;
22780;SDS011;11557;50.884;4.322;2023-03-23T16:38:03;9.95;;;2.67;;
22780;SDS011;11557;50.884;4.322;2023-03-23T16:40:29;9.43;;;2.60;;
22780;SDS011;11557;50.884;4.322;2023-03-23T16:42:55;10.18;;;2.17;;
22780;SDS011;11557;50.884;4.322;2023-03-23T16:45:20;10.85;;;2.47;;